CYDC weather

Princeton Airport
Town of Princeton, British Columbia, Canada

Public forecast

Using degrees Celsius for public forecast. Weather courtesy of forecast.io.

METAR (pilot weather report)

Report is more than 6 hours old.

Retrieved 2019/09/22 01:00 UTC (10 hours ago):

CYDC 220100Z 29004KT 260V010 25SM FEW064 18/08 A2997 RMK CU1 CU TR LAST STFD OB/NEXT 22 1300UTC SLP150 DENSITY ALT 3200FT

TAF (pilot weather forecast)

Closest forecast is Penticton Airport, 35.5 nm (65.7 km) E. Retrieved 2019/09/22 07:39 UTC (4 hours ago):

TAF CYYF 220638Z 2207/2219 VRB03KT P6SM FEW080 FEW250 BECMG 2214/2216 18007KT FM221800 18010G20KT P6SM BKN080 RMK NXT FCST BY 221300Z